sensor_id;sensor_type;location;lat;lon;timestamp;temperature;humidity
31131;DHT22;20292;50.944;4.034;2022-07-09T00:00:06;21.10;99.90
31131;DHT22;20292;50.944;4.034;2022-07-09T00:02:32;21.00;99.90
31131;DHT22;20292;50.944;4.034;2022-07-09T00:05:00;21.00;99.90
31131;DHT22;20292;50.944;4.034;2022-07-09T00:07:28;21.00;99.90
31131;DHT22;20292;50.944;4.034;2022-07-09T00:09:54;21.10;99.90
31131;DHT22;20292;50.944;4.034;2022-07-09T00:12:20;21.10;99.90
31131;DHT22;20292;50.944;4.034;2022-07-09T00:14:45;21.10;99.90
31131;DHT22;20292;50.944;4.034;2022-07-09T00:17:12;21.10;99.90
31131;DHT22;20292;50.944;4.034;2022-07-09T00:19:38;21.00;99.90
31131;DHT22;20292;50.944;4.034;2022-07-09T00:22:03;21.00;99.90
31131;DHT22;20292;50.944;4.034;2022-07-09T00:24:31;21.00;99.90
31131;DHT22;20292;50.944;4.034;2022-07-09T00:26:56;21.00;99.90
31131;DHT22;20292;50.944;4.034;2022-07-09T00:29:22;20.90;99.90
31131;DHT22;20292;50.944;4.034;2022-07-09T00:31:48;20.90;99.90
31131;DHT22;20292;50.944;4.034;2022-07-09T00:34:13;20.80;99.90
31131;DHT22;20292;50.944;4.034;2022-07-09T00:36:39;20.80;99.90
31131;DHT22;20292;50.944;4.034;2022-07-09T00:39:04;20.80;99.90
31131;DHT22;20292;50.944;4.034;2022-07-09T00:41:31;20.70;99.90
31131;DHT22;20292;50.944;4.034;2022-07-09T00:43:56;20.70;99.90
31131;DHT22;20292;50.944;4.034;2022-07-09T00:46:22;20.70;99.90
31131;DHT22;20292;50.944;4.034;2022-07-09T00:48:47;20.60;99.90
31131;DHT22;20292;50.944;4.034;2022-07-09T00:51:14;20.60;99.90
31131;DHT22;20292;50.944;4.034;2022-07-09T00:53:42;20.50;99.90
31131;DHT22;20292;50.944;4.034;2022-07-09T00:56:08;20.50;99.90
31131;DHT22;20292;50.944;4.034;2022-07-09T00:58:35;20.50;99.90
31131;DHT22;20292;50.944;4.034;2022-07-09T01:01:01;20.50;99.90
31131;DHT22;20292;50.944;4.034;2022-07-09T01:03:27;20.40;99.90
31131;DHT22;20292;50.944;4.034;2022-07-09T01:05:53;20.40;99.90
31131;DHT22;20292;50.944;4.034;2022-07-09T01:08:21;20.40;99.90
31131;DHT22;20292;50.944;4.034;2022-07-09T01:10:48;20.40;99.90
31131;DHT22;20292;50.944;4.034;2022-07-09T01:13:13;20.40;99.90
31131;DHT22;20292;50.944;4.034;2022-07-09T01:15:39;20.30;99.90
31131;DHT22;20292;50.944;4.034;2022-07-09T01:18:05;20.40;99.90
31131;DHT22;20292;50.944;4.034;2022-07-09T01:20:31;20.40;99.90
31131;DHT22;20292;50.944;4.034;2022-07-09T01:22:58;20.40;99.90
31131;DHT22;20292;50.944;4.034;2022-07-09T01:25:40;20.40;99.90
31131;DHT22;20292;50.944;4.034;2022-07-09T01:28:07;20.50;99.90
31131;DHT22;20292;50.944;4.034;2022-07-09T01:30:35;20.40;99.90
31131;DHT22;20292;50.944;4.034;2022-07-09T01:33:01;20.40;99.90
31131;DHT22;20292;50.944;4.034;2022-07-09T01:35:27;20.30;99.90
31131;DHT22;20292;50.944;4.034;2022-07-09T01:37:53;20.30;99.90
31131;DHT22;20292;50.944;4.034;2022-07-09T01:40:19;20.30;99.90
31131;DHT22;20292;50.944;4.034;2022-07-09T01:42:45;20.30;99.90
31131;DHT22;20292;50.944;4.034;2022-07-09T01:45:11;20.20;99.90
31131;DHT22;20292;50.944;4.034;2022-07-09T01:47:37;20.20;99.90
31131;DHT22;20292;50.944;4.034;2022-07-09T01:50:03;20.10;99.90
31131;DHT22;20292;50.944;4.034;2022-07-09T01:52:29;20.10;99.90
31131;DHT22;20292;50.944;4.034;2022-07-09T01:54:55;20.10;99.90
31131;DHT22;20292;50.944;4.034;2022-07-09T01:57:20;20.00;99.90
31131;DHT22;20292;50.944;4.034;2022-07-09T01:59:46;20.00;99.90
31131;DHT22;20292;50.944;4.034;2022-07-09T02:02:12;20.10;99.90
31131;DHT22;20292;50.944;4.034;2022-07-09T02:04:37;20.10;99.90
31131;DHT22;20292;50.944;4.034;2022-07-09T02:07:03;20.10;99.90
31131;DHT22;20292;50.944;4.034;2022-07-09T02:09:29;20.10;99.90
31131;DHT22;20292;50.944;4.034;2022-07-09T02:11:55;20.10;99.90
31131;DHT22;20292;50.944;4.034;2022-07-09T02:14:23;20.10;99.90
31131;DHT22;20292;50.944;4.034;2022-07-09T02:16:50;20.00;99.90
31131;DHT22;20292;50.944;4.034;2022-07-09T02:19:15;19.90;99.90
31131;DHT22;20292;50.944;4.034;2022-07-09T02:21:41;19.90;99.90
31131;DHT22;20292;50.944;4.034;2022-07-09T02:24:07;19.90;99.90
31131;DHT22;20292;50.944;4.034;2022-07-09T02:26:33;19.80;99.90
31131;DHT22;20292;50.944;4.034;2022-07-09T02:28:59;19.90;99.90
31131;DHT22;20292;50.944;4.034;2022-07-09T02:31:25;19.90;99.90
31131;DHT22;20292;50.944;4.034;2022-07-09T02:33:52;19.90;99.90
31131;DHT22;20292;50.944;4.034;2022-07-09T02:36:19;20.00;99.90
31131;DHT22;20292;50.944;4.034;2022-07-09T02:38:44;20.10;99.90
31131;DHT22;20292;50.944;4.034;2022-07-09T02:41:10;20.10;99.90
31131;DHT22;20292;50.944;4.034;2022-07-09T02:43:36;20.10;99.90
31131;DHT22;20292;50.944;4.034;2022-07-09T02:46:01;20.10;99.90
31131;DHT22;20292;50.944;4.034;2022-07-09T02:48:29;20.10;99.90
31131;DHT22;20292;50.944;4.034;2022-07-09T02:50:54;20.10;99.90
31131;DHT22;20292;50.944;4.034;2022-07-09T02:53:20;20.00;99.90
31131;DHT22;20292;50.944;4.034;2022-07-09T02:55:46;20.10;99.90
31131;DHT22;20292;50.944;4.034;2022-07-09T02:58:12;20.10;99.90
31131;DHT22;20292;50.944;4.034;2022-07-09T03:00:38;20.00;99.90
31131;DHT22;20292;50.944;4.034;2022-07-09T03:03:08;20.10;99.90
31131;DHT22;20292;50.944;4.034;2022-07-09T03:05:33;20.00;99.90
31131;DHT22;20292;50.944;4.034;2022-07-09T03:07:59;20.00;99.90
31131;DHT22;20292;50.944;4.034;2022-07-09T03:10:25;20.10;99.90
31131;DHT22;20292;50.944;4.034;2022-07-09T03:12:51;20.10;99.90
31131;DHT22;20292;50.944;4.034;2022-07-09T03:15:17;20.10;99.90
31131;DHT22;20292;50.944;4.034;2022-07-09T03:17:47;20.00;99.90
31131;DHT22;20292;50.944;4.034;2022-07-09T03:20:13;20.00;99.90
31131;DHT22;20292;50.944;4.034;2022-07-09T03:22:39;20.00;99.90
31131;DHT22;20292;50.944;4.034;2022-07-09T03:25:06;20.10;99.90
31131;DHT22;20292;50.944;4.034;2022-07-09T03:27:32;20.20;99.90
31131;DHT22;20292;50.944;4.034;2022-07-09T03:29:58;20.30;99.90
31131;DHT22;20292;50.944;4.034;2022-07-09T03:32:25;20.30;99.90
31131;DHT22;20292;50.944;4.034;2022-07-09T03:34:51;20.30;99.90
31131;DHT22;20292;50.944;4.034;2022-07-09T03:37:20;20.40;99.90
31131;DHT22;20292;50.944;4.034;2022-07-09T03:39:47;20.50;99.90
31131;DHT22;20292;50.944;4.034;2022-07-09T03:42:12;20.40;99.90
31131;DHT22;20292;50.944;4.034;2022-07-09T03:44:38;20.50;99.90
31131;DHT22;20292;50.944;4.034;2022-07-09T03:47:05;20.50;99.90
31131;DHT22;20292;50.944;4.034;2022-07-09T03:49:31;20.50;99.90
31131;DHT22;20292;50.944;4.034;2022-07-09T03:51:57;20.50;99.90
31131;DHT22;20292;50.944;4.034;2022-07-09T03:54:23;20.50;99.90
31131;DHT22;20292;50.944;4.034;2022-07-09T03:56:49;20.50;99.90
31131;DHT22;20292;50.944;4.034;2022-07-09T03:59:15;20.50;99.90
31131;DHT22;20292;50.944;4.034;2022-07-09T04:01:41;20.40;99.90
31131;DHT22;20292;50.944;4.034;2022-07-09T04:04:06;20.40;99.90
31131;DHT22;20292;50.944;4.034;2022-07-09T04:06:32;20.50;99.90
31131;DHT22;20292;50.944;4.034;2022-07-09T04:08:57;20.40;99.90
31131;DHT22;20292;50.944;4.034;2022-07-09T04:11:23;20.50;99.90
31131;DHT22;20292;50.944;4.034;2022-07-09T04:13:49;20.40;99.90
31131;DHT22;20292;50.944;4.034;2022-07-09T04:16:15;20.40;99.90
31131;DHT22;20292;50.944;4.034;2022-07-09T04:18:41;20.40;99.90
31131;DHT22;20292;50.944;4.034;2022-07-09T04:21:09;20.40;99.90
31131;DHT22;20292;50.944;4.034;2022-07-09T04:23:35;20.40;99.90
31131;DHT22;20292;50.944;4.034;2022-07-09T04:26:01;20.40;99.90
31131;DHT22;20292;50.944;4.034;2022-07-09T04:28:26;20.30;99.90
31131;DHT22;20292;50.944;4.034;2022-07-09T04:30:52;20.50;99.90
31131;DHT22;20292;50.944;4.034;2022-07-09T04:33:18;20.50;99.90
31131;DHT22;20292;50.944;4.034;2022-07-09T04:35:44;20.50;99.90
31131;DHT22;20292;50.944;4.034;2022-07-09T04:38:11;20.60;99.90
31131;DHT22;20292;50.944;4.034;2022-07-09T04:40:38;20.60;99.90
31131;DHT22;20292;50.944;4.034;2022-07-09T04:43:05;20.60;99.90
31131;DHT22;20292;50.944;4.034;2022-07-09T04:45:31;20.80;99.90
31131;DHT22;20292;50.944;4.034;2022-07-09T04:47:58;20.80;99.90
31131;DHT22;20292;50.944;4.034;2022-07-09T04:50:26;20.90;99.90
31131;DHT22;20292;50.944;4.034;2022-07-09T04:52:53;20.70;99.90
31131;DHT22;20292;50.944;4.034;2022-07-09T04:55:18;20.80;99.90
31131;DHT22;20292;50.944;4.034;2022-07-09T04:57:45;20.90;99.90
31131;DHT22;20292;50.944;4.034;2022-07-09T05:00:11;21.00;99.90
31131;DHT22;20292;50.944;4.034;2022-07-09T05:02:37;21.10;99.90
31131;DHT22;20292;50.944;4.034;2022-07-09T05:05:04;21.30;99.90
31131;DHT22;20292;50.944;4.034;2022-07-09T05:07:32;21.90;99.90
31131;DHT22;20292;50.944;4.034;2022-07-09T05:09:57;22.20;99.90
31131;DHT22;20292;50.944;4.034;2022-07-09T05:12:23;22.50;99.90
31131;DHT22;20292;50.944;4.034;2022-07-09T05:14:49;22.70;99.90
31131;DHT22;20292;50.944;4.034;2022-07-09T05:17:14;22.70;99.90
31131;DHT22;20292;50.944;4.034;2022-07-09T05:19:40;22.70;99.90
31131;DHT22;20292;50.944;4.034;2022-07-09T05:22:06;23.10;99.90
31131;DHT22;20292;50.944;4.034;2022-07-09T05:24:31;23.20;99.90
31131;DHT22;20292;50.944;4.034;2022-07-09T05:26:57;23.30;99.90
31131;DHT22;20292;50.944;4.034;2022-07-09T05:29:22;23.90;99.90
31131;DHT22;20292;50.944;4.034;2022-07-09T05:31:49;24.80;99.90
31131;DHT22;20292;50.944;4.034;2022-07-09T05:34:15;25.50;99.90
31131;DHT22;20292;50.944;4.034;2022-07-09T05:36:41;25.80;99.90
31131;DHT22;20292;50.944;4.034;2022-07-09T05:39:07;26.20;99.90
31131;DHT22;20292;50.944;4.034;2022-07-09T05:41:33;26.90;99.90
31131;DHT22;20292;50.944;4.034;2022-07-09T05:43:59;27.90;99.90
31131;DHT22;20292;50.944;4.034;2022-07-09T05:46:24;28.50;99.90
31131;DHT22;20292;50.944;4.034;2022-07-09T05:48:50;29.00;99.90
31131;DHT22;20292;50.944;4.034;2022-07-09T05:51:16;29.30;99.90
31131;DHT22;20292;50.944;4.034;2022-07-09T05:53:42;29.30;99.90
31131;DHT22;20292;50.944;4.034;2022-07-09T05:56:08;29.70;99.90
31131;DHT22;20292;50.944;4.034;2022-07-09T05:58:34;30.10;99.90
31131;DHT22;20292;50.944;4.034;2022-07-09T06:01:00;30.70;99.90
31131;DHT22;20292;50.944;4.034;2022-07-09T06:03:25;31.00;99.30
31131;DHT22;20292;50.944;4.034;2022-07-09T06:05:51;31.90;97.70
31131;DHT22;20292;50.944;4.034;2022-07-09T06:08:17;33.00;94.90
31131;DHT22;20292;50.944;4.034;2022-07-09T06:10:42;33.00;93.20
31131;DHT22;20292;50.944;4.034;2022-07-09T06:13:08;32.80;92.80
31131;DHT22;20292;50.944;4.034;2022-07-09T06:15:34;32.50;92.80
31131;DHT22;20292;50.944;4.034;2022-07-09T06:18:00;31.90;93.30
31131;DHT22;20292;50.944;4.034;2022-07-09T06:20:26;30.90;94.80
31131;DHT22;20292;50.944;4.034;2022-07-09T06:22:51;31.40;95.40
31131;DHT22;20292;50.944;4.034;2022-07-09T06:25:17;31.60;94.50
31131;DHT22;20292;50.944;4.034;2022-07-09T06:27:42;31.60;94.20
31131;DHT22;20292;50.944;4.034;2022-07-09T06:30:08;32.80;92.90
31131;DHT22;20292;50.944;4.034;2022-07-09T06:32:34;33.60;91.20
31131;DHT22;20292;50.944;4.034;2022-07-09T06:35:00;34.70;88.70
31131;DHT22;20292;50.944;4.034;2022-07-09T06:37:26;35.20;84.80
31131;DHT22;20292;50.944;4.034;2022-07-09T06:39:51;35.20;81.70
31131;DHT22;20292;50.944;4.034;2022-07-09T06:42:21;34.70;81.90
31131;DHT22;20292;50.944;4.034;2022-07-09T06:44:47;34.10;83.80
31131;DHT22;20292;50.944;4.034;2022-07-09T06:47:12;34.30;83.10
31131;DHT22;20292;50.944;4.034;2022-07-09T06:49:38;34.70;81.80
31131;DHT22;20292;50.944;4.034;2022-07-09T06:52:05;35.60;80.10
31131;DHT22;20292;50.944;4.034;2022-07-09T06:54:31;36.40;77.60
31131;DHT22;20292;50.944;4.034;2022-07-09T06:56:57;36.30;76.50
31131;DHT22;20292;50.944;4.034;2022-07-09T06:59:23;35.50;75.50
31131;DHT22;20292;50.944;4.034;2022-07-09T07:01:49;34.90;76.10
31131;DHT22;20292;50.944;4.034;2022-07-09T07:04:15;33.70;78.60
31131;DHT22;20292;50.944;4.034;2022-07-09T07:06:41;31.70;81.70
31131;DHT22;20292;50.944;4.034;2022-07-09T07:09:07;30.70;86.60
31131;DHT22;20292;50.944;4.034;2022-07-09T07:11:33;30.80;88.10
31131;DHT22;20292;50.944;4.034;2022-07-09T07:13:59;31.10;88.30
31131;DHT22;20292;50.944;4.034;2022-07-09T07:16:28;31.00;88.80
31131;DHT22;20292;50.944;4.034;2022-07-09T07:18:53;31.30;89.40
31131;DHT22;20292;50.944;4.034;2022-07-09T07:21:20;30.50;90.50
31131;DHT22;20292;50.944;4.034;2022-07-09T07:23:45;30.20;91.60
31131;DHT22;20292;50.944;4.034;2022-07-09T07:26:11;30.00;92.00
31131;DHT22;20292;50.944;4.034;2022-07-09T07:28:36;29.50;93.50
31131;DHT22;20292;50.944;4.034;2022-07-09T07:31:02;29.20;94.30
31131;DHT22;20292;50.944;4.034;2022-07-09T07:33:28;28.80;95.60
31131;DHT22;20292;50.944;4.034;2022-07-09T07:35:53;28.40;96.80
31131;DHT22;20292;50.944;4.034;2022-07-09T07:38:19;28.30;98.10
31131;DHT22;20292;50.944;4.034;2022-07-09T07:40:44;28.30;97.80
31131;DHT22;20292;50.944;4.034;2022-07-09T07:43:11;29.30;96.50
31131;DHT22;20292;50.944;4.034;2022-07-09T07:45:37;29.80;95.20
31131;DHT22;20292;50.944;4.034;2022-07-09T07:48:03;30.80;93.50
31131;DHT22;20292;50.944;4.034;2022-07-09T07:50:28;31.30;92.00
31131;DHT22;20292;50.944;4.034;2022-07-09T07:52:54;31.90;90.90
31131;DHT22;20292;50.944;4.034;2022-07-09T07:55:20;32.00;90.50
31131;DHT22;20292;50.944;4.034;2022-07-09T07:57:45;32.60;89.00
31131;DHT22;20292;50.944;4.034;2022-07-09T08:00:11;32.30;88.90
31131;DHT22;20292;50.944;4.034;2022-07-09T08:02:37;32.30;89.50
31131;DHT22;20292;50.944;4.034;2022-07-09T08:05:03;32.30;89.30
31131;DHT22;20292;50.944;4.034;2022-07-09T08:07:28;31.80;90.00
31131;DHT22;20292;50.944;4.034;2022-07-09T08:09:54;31.70;90.50
31131;DHT22;20292;50.944;4.034;2022-07-09T08:12:19;32.20;90.30
31131;DHT22;20292;50.944;4.034;2022-07-09T08:14:45;33.00;88.50
31131;DHT22;20292;50.944;4.034;2022-07-09T08:17:11;32.90;87.40
31131;DHT22;20292;50.944;4.034;2022-07-09T08:19:36;33.30;86.90
31131;DHT22;20292;50.944;4.034;2022-07-09T08:22:02;33.40;86.90
31131;DHT22;20292;50.944;4.034;2022-07-09T08:24:28;33.50;87.00
31131;DHT22;20292;50.944;4.034;2022-07-09T08:26:54;33.80;86.80
31131;DHT22;20292;50.944;4.034;2022-07-09T08:29:19;33.40;86.10
31131;DHT22;20292;50.944;4.034;2022-07-09T08:31:45;33.50;86.70
31131;DHT22;20292;50.944;4.034;2022-07-09T08:34:12;33.30;86.70
31131;DHT22;20292;50.944;4.034;2022-07-09T08:36:38;33.20;88.40
31131;DHT22;20292;50.944;4.034;2022-07-09T08:39:03;33.10;88.80
31131;DHT22;20292;50.944;4.034;2022-07-09T08:41:29;32.40;90.50
31131;DHT22;20292;50.944;4.034;2022-07-09T08:43:55;32.00;91.60
31131;DHT22;20292;50.944;4.034;2022-07-09T08:46:21;32.20;91.80
31131;DHT22;20292;50.944;4.034;2022-07-09T08:48:47;32.70;92.30
31131;DHT22;20292;50.944;4.034;2022-07-09T08:51:13;32.70;92.20
31131;DHT22;20292;50.944;4.034;2022-07-09T08:53:43;31.80;93.40
31131;DHT22;20292;50.944;4.034;2022-07-09T08:56:10;31.10;94.30
31131;DHT22;20292;50.944;4.034;2022-07-09T08:58:37;31.90;94.40
31131;DHT22;20292;50.944;4.034;2022-07-09T09:01:03;32.60;93.40
31131;DHT22;20292;50.944;4.034;2022-07-09T09:03:29;31.90;93.50
31131;DHT22;20292;50.944;4.034;2022-07-09T09:06:06;31.20;95.00
31131;DHT22;20292;50.944;4.034;2022-07-09T09:08:35;30.00;97.30
31131;DHT22;20292;50.944;4.034;2022-07-09T09:11:04;29.30;99.90
31131;DHT22;20292;50.944;4.034;2022-07-09T09:13:31;29.00;99.90
31131;DHT22;20292;50.944;4.034;2022-07-09T09:16:05;28.20;99.90
31131;DHT22;20292;50.944;4.034;2022-07-09T09:18:41;27.90;99.90
31131;DHT22;20292;50.944;4.034;2022-07-09T09:21:07;28.00;99.90
31131;DHT22;20292;50.944;4.034;2022-07-09T09:26:15;27.70;99.90
31131;DHT22;20292;50.944;4.034;2022-07-09T09:31:27;28.20;99.90
31131;DHT22;20292;50.944;4.034;2022-07-09T09:34:19;28.70;99.90
31131;DHT22;20292;50.944;4.034;2022-07-09T09:36:45;28.10;99.90
31131;DHT22;20292;50.944;4.034;2022-07-09T09:39:26;28.00;99.90
31131;DHT22;20292;50.944;4.034;2022-07-09T09:41:58;28.20;99.90
31131;DHT22;20292;50.944;4.034;2022-07-09T09:44:28;29.10;99.90
31131;DHT22;20292;50.944;4.034;2022-07-09T09:46:55;29.30;99.90
31131;DHT22;20292;50.944;4.034;2022-07-09T09:49:21;28.70;99.90
31131;DHT22;20292;50.944;4.034;2022-07-09T09:52:02;28.80;99.90
31131;DHT22;20292;50.944;4.034;2022-07-09T09:54:28;29.00;99.90
31131;DHT22;20292;50.944;4.034;2022-07-09T09:56:57;29.20;99.90
31131;DHT22;20292;50.944;4.034;2022-07-09T09:59:23;29.20;99.90
31131;DHT22;20292;50.944;4.034;2022-07-09T10:01:49;28.60;99.90
31131;DHT22;20292;50.944;4.034;2022-07-09T10:04:15;28.00;99.90
31131;DHT22;20292;50.944;4.034;2022-07-09T10:06:41;27.30;99.90
31131;DHT22;20292;50.944;4.034;2022-07-09T10:09:10;27.10;99.90
31131;DHT22;20292;50.944;4.034;2022-07-09T10:11:40;27.10;99.90
31131;DHT22;20292;50.944;4.034;2022-07-09T10:14:07;27.10;99.90
31131;DHT22;20292;50.944;4.034;2022-07-09T10:16:38;26.80;99.90
31131;DHT22;20292;50.944;4.034;2022-07-09T10:19:04;26.30;99.90
31131;DHT22;20292;50.944;4.034;2022-07-09T10:21:37;26.00;99.90
31131;DHT22;20292;50.944;4.034;2022-07-09T10:24:04;25.90;99.90
31131;DHT22;20292;50.944;4.034;2022-07-09T10:29:25;25.70;99.90
31131;DHT22;20292;50.944;4.034;2022-07-09T10:31:55;26.00;99.90
31131;DHT22;20292;50.944;4.034;2022-07-09T10:37:10;26.20;99.90
31131;DHT22;20292;50.944;4.034;2022-07-09T10:39:36;26.00;99.90
31131;DHT22;20292;50.944;4.034;2022-07-09T10:42:04;25.70;99.90
31131;DHT22;20292;50.944;4.034;2022-07-09T10:44:35;25.50;99.90
31131;DHT22;20292;50.944;4.034;2022-07-09T10:47:01;25.60;99.90
31131;DHT22;20292;50.944;4.034;2022-07-09T10:49:27;25.90;99.90
31131;DHT22;20292;50.944;4.034;2022-07-09T10:51:59;25.80;99.90
31131;DHT22;20292;50.944;4.034;2022-07-09T10:54:25;25.70;99.90
31131;DHT22;20292;50.944;4.034;2022-07-09T10:56:52;25.70;99.90
31131;DHT22;20292;50.944;4.034;2022-07-09T10:59:19;25.70;99.90
31131;DHT22;20292;50.944;4.034;2022-07-09T11:01:45;26.00;99.90
31131;DHT22;20292;50.944;4.034;2022-07-09T11:04:10;25.90;99.90
31131;DHT22;20292;50.944;4.034;2022-07-09T11:06:45;25.50;99.90
31131;DHT22;20292;50.944;4.034;2022-07-09T11:09:15;25.30;99.90
31131;DHT22;20292;50.944;4.034;2022-07-09T11:11:44;25.20;99.90
31131;DHT22;20292;50.944;4.034;2022-07-09T11:14:10;25.30;99.90
31131;DHT22;20292;50.944;4.034;2022-07-09T11:16:37;25.50;99.90
31131;DHT22;20292;50.944;4.034;2022-07-09T11:19:16;25.20;99.90
31131;DHT22;20292;50.944;4.034;2022-07-09T11:21:43;25.30;99.90
31131;DHT22;20292;50.944;4.034;2022-07-09T11:24:19;25.40;99.90
31131;DHT22;20292;50.944;4.034;2022-07-09T11:26:46;25.70;99.90
31131;DHT22;20292;50.944;4.034;2022-07-09T11:29:16;25.90;99.90
31131;DHT22;20292;50.944;4.034;2022-07-09T11:31:52;25.60;99.90
31131;DHT22;20292;50.944;4.034;2022-07-09T11:34:19;25.20;99.90
31131;DHT22;20292;50.944;4.034;2022-07-09T11:36:52;25.20;99.90
31131;DHT22;20292;50.944;4.034;2022-07-09T11:39:26;25.50;99.90
31131;DHT22;20292;50.944;4.034;2022-07-09T11:41:53;25.70;99.90
31131;DHT22;20292;50.944;4.034;2022-07-09T11:44:23;25.40;99.90
31131;DHT22;20292;50.944;4.034;2022-07-09T11:49:41;24.90;99.90
31131;DHT22;20292;50.944;4.034;2022-07-09T11:55:15;25.50;99.90
31131;DHT22;20292;50.944;4.034;2022-07-09T11:57:49;25.40;99.90
31131;DHT22;20292;50.944;4.034;2022-07-09T12:00:29;25.20;99.90
31131;DHT22;20292;50.944;4.034;2022-07-09T12:02:56;25.20;99.90
31131;DHT22;20292;50.944;4.034;2022-07-09T12:05:31;25.20;99.90
31131;DHT22;20292;50.944;4.034;2022-07-09T12:07:58;25.30;99.90
31131;DHT22;20292;50.944;4.034;2022-07-09T12:10:27;25.10;99.90
31131;DHT22;20292;50.944;4.034;2022-07-09T12:12:53;24.70;99.90
31131;DHT22;20292;50.944;4.034;2022-07-09T12:15:18;24.60;99.90
31131;DHT22;20292;50.944;4.034;2022-07-09T12:17:44;24.20;99.90
31131;DHT22;20292;50.944;4.034;2022-07-09T12:20:10;24.30;99.90
31131;DHT22;20292;50.944;4.034;2022-07-09T12:22:36;24.70;99.90
31131;DHT22;20292;50.944;4.034;2022-07-09T12:25:02;24.90;99.90
31131;DHT22;20292;50.944;4.034;2022-07-09T12:27:28;24.90;99.90
31131;DHT22;20292;50.944;4.034;2022-07-09T12:29:53;24.80;99.90
31131;DHT22;20292;50.944;4.034;2022-07-09T12:32:19;24.70;99.90
31131;DHT22;20292;50.944;4.034;2022-07-09T12:34:45;24.50;99.90
31131;DHT22;20292;50.944;4.034;2022-07-09T12:37:10;24.40;99.90
31131;DHT22;20292;50.944;4.034;2022-07-09T12:39:36;24.60;99.90
31131;DHT22;20292;50.944;4.034;2022-07-09T12:42:02;24.50;99.90
31131;DHT22;20292;50.944;4.034;2022-07-09T12:44:28;24.80;99.90
31131;DHT22;20292;50.944;4.034;2022-07-09T12:46:54;24.80;99.90
31131;DHT22;20292;50.944;4.034;2022-07-09T12:49:20;24.70;99.90
31131;DHT22;20292;50.944;4.034;2022-07-09T12:51:45;24.90;99.90
31131;DHT22;20292;50.944;4.034;2022-07-09T12:54:11;25.00;99.90
31131;DHT22;20292;50.944;4.034;2022-07-09T12:56:37;25.10;99.90
31131;DHT22;20292;50.944;4.034;2022-07-09T12:59:02;25.10;99.90
31131;DHT22;20292;50.944;4.034;2022-07-09T13:01:28;24.80;99.90
31131;DHT22;20292;50.944;4.034;2022-07-09T13:03:54;24.80;99.90
31131;DHT22;20292;50.944;4.034;2022-07-09T13:06:21;24.70;99.90
31131;DHT22;20292;50.944;4.034;2022-07-09T13:09:03;24.50;99.90
31131;DHT22;20292;50.944;4.034;2022-07-09T13:11:29;24.30;99.90
31131;DHT22;20292;50.944;4.034;2022-07-09T13:13:55;24.30;99.90
31131;DHT22;20292;50.944;4.034;2022-07-09T13:16:21;24.10;99.90
31131;DHT22;20292;50.944;4.034;2022-07-09T13:18:47;24.20;99.90
31131;DHT22;20292;50.944;4.034;2022-07-09T13:21:13;24.40;99.90
31131;DHT22;20292;50.944;4.034;2022-07-09T13:23:39;24.40;99.90
31131;DHT22;20292;50.944;4.034;2022-07-09T13:26:05;24.20;99.90
31131;DHT22;20292;50.944;4.034;2022-07-09T13:28:30;24.00;99.90
31131;DHT22;20292;50.944;4.034;2022-07-09T13:30:56;23.90;99.90
31131;DHT22;20292;50.944;4.034;2022-07-09T13:33:22;24.10;99.90
31131;DHT22;20292;50.944;4.034;2022-07-09T13:35:48;24.50;99.90
31131;DHT22;20292;50.944;4.034;2022-07-09T13:38:13;24.90;99.90
31131;DHT22;20292;50.944;4.034;2022-07-09T13:40:39;24.80;99.90
31131;DHT22;20292;50.944;4.034;2022-07-09T13:43:04;23.80;99.90
31131;DHT22;20292;50.944;4.034;2022-07-09T13:45:30;23.40;99.90
31131;DHT22;20292;50.944;4.034;2022-07-09T13:47:56;23.30;99.90
31131;DHT22;20292;50.944;4.034;2022-07-09T13:50:22;23.80;99.90
31131;DHT22;20292;50.944;4.034;2022-07-09T13:52:48;24.10;99.90
31131;DHT22;20292;50.944;4.034;2022-07-09T13:55:14;24.40;99.90
31131;DHT22;20292;50.944;4.034;2022-07-09T13:57:40;24.40;99.90
31131;DHT22;20292;50.944;4.034;2022-07-09T14:00:07;24.40;99.90
31131;DHT22;20292;50.944;4.034;2022-07-09T14:02:33;24.00;99.90
31131;DHT22;20292;50.944;4.034;2022-07-09T14:04:59;23.20;99.90
31131;DHT22;20292;50.944;4.034;2022-07-09T14:07:25;22.70;99.90
31131;DHT22;20292;50.944;4.034;2022-07-09T14:09:51;22.40;99.90
31131;DHT22;20292;50.944;4.034;2022-07-09T14:12:17;22.50;99.90
31131;DHT22;20292;50.944;4.034;2022-07-09T14:14:43;22.40;99.90
31131;DHT22;20292;50.944;4.034;2022-07-09T14:17:08;22.40;99.90
31131;DHT22;20292;50.944;4.034;2022-07-09T14:19:34;22.40;99.90
31131;DHT22;20292;50.944;4.034;2022-07-09T14:22:00;22.30;99.90
31131;DHT22;20292;50.944;4.034;2022-07-09T14:24:26;22.60;99.90
31131;DHT22;20292;50.944;4.034;2022-07-09T14:26:51;22.90;99.90
31131;DHT22;20292;50.944;4.034;2022-07-09T14:29:17;22.80;99.90
31131;DHT22;20292;50.944;4.034;2022-07-09T14:31:43;23.00;99.90
31131;DHT22;20292;50.944;4.034;2022-07-09T14:34:08;23.10;99.90
31131;DHT22;20292;50.944;4.034;2022-07-09T14:36:34;23.10;99.90
31131;DHT22;20292;50.944;4.034;2022-07-09T14:39:00;22.90;99.90
31131;DHT22;20292;50.944;4.034;2022-07-09T14:41:28;22.90;99.90
31131;DHT22;20292;50.944;4.034;2022-07-09T14:43:53;22.60;99.90
31131;DHT22;20292;50.944;4.034;2022-07-09T14:46:19;22.50;99.90
31131;DHT22;20292;50.944;4.034;2022-07-09T14:48:45;22.60;99.90
31131;DHT22;20292;50.944;4.034;2022-07-09T14:51:11;22.60;99.90
31131;DHT22;20292;50.944;4.034;2022-07-09T14:53:37;22.30;99.90
31131;DHT22;20292;50.944;4.034;2022-07-09T14:56:03;22.30;99.90
31131;DHT22;20292;50.944;4.034;2022-07-09T14:58:28;22.40;99.90
31131;DHT22;20292;50.944;4.034;2022-07-09T15:00:55;22.50;99.90
31131;DHT22;20292;50.944;4.034;2022-07-09T15:03:21;22.50;99.90
31131;DHT22;20292;50.944;4.034;2022-07-09T15:05:47;22.70;99.90
31131;DHT22;20292;50.944;4.034;2022-07-09T15:08:12;22.70;99.90
31131;DHT22;20292;50.944;4.034;2022-07-09T15:10:38;22.20;99.90
31131;DHT22;20292;50.944;4.034;2022-07-09T15:13:04;22.10;99.90
31131;DHT22;20292;50.944;4.034;2022-07-09T15:15:32;22.30;99.90
31131;DHT22;20292;50.944;4.034;2022-07-09T15:17:58;22.10;99.90
31131;DHT22;20292;50.944;4.034;2022-07-09T15:20:24;22.10;99.90
31131;DHT22;20292;50.944;4.034;2022-07-09T15:22:50;22.10;99.90
31131;DHT22;20292;50.944;4.034;2022-07-09T15:25:16;22.40;99.90
31131;DHT22;20292;50.944;4.034;2022-07-09T15:27:41;22.40;99.90
31131;DHT22;20292;50.944;4.034;2022-07-09T15:30:08;22.50;99.90
31131;DHT22;20292;50.944;4.034;2022-07-09T15:32:33;22.70;99.90
31131;DHT22;20292;50.944;4.034;2022-07-09T15:34:59;22.70;99.90
31131;DHT22;20292;50.944;4.034;2022-07-09T15:37:25;22.70;99.90
31131;DHT22;20292;50.944;4.034;2022-07-09T15:39:52;22.90;99.90
31131;DHT22;20292;50.944;4.034;2022-07-09T15:42:18;23.00;99.90